Hovedside
METAR-TAF:

METAR-TAF

Lufthavner :

Šiauliai, Litauen

breddegrad: 55-53-38N, lengdegrad: 023-23-42E, høyde over havet: 135 m

Gjeldene værobservasjon

Denne rapporten ble laget for 38 minutter siden, klokken 21:20 UTC
Vind 3 kt fra Sørøst
Temperatur 17°C
Luftfuktighet 94%
Trykk 1015 hPa
Sikt 10 km eller mer
ingen skyer under 1500 m og ingen bygeskyer

METAR: EYSA 182120Z 13003KT CAVOK 17/16 Q1015 BLU NOSIG

Tid: 00:58 (21:58 UTC)

Varsel

Denne rapporten ble laget for 1 time og 58 minutter siden, klokken 20:00 UTC
Varsel gyldig fra 18. klokken 21 UTC til 19. klokken 06 UTC
Vind 4 kt fra skiftende retning
Sikt: 6000 m
Spredte skyer i en høyde av 4500 ft

TAF: EYSA 182000Z 1821/1906 VRB04KT 6000 SCT045

Værobservasjoner og værvarsel for over 4000 flyplasser (METAR- og TAF-rapporter).

Tilgjengelige stasjoner er representert av de røde og gule prikkene på kartet.

Hold musepekeren over prikken for å se navnet på stasjonen.

Klikk så for å se værobservasjoner og -varsler.

For å forandre kartet kan du klikke på den grønne knappen med svart kryss for å zoome inn, på den grønne knappen med strek for å zoome ut, eller på de grønne pilene for å se tilstøtende kart.


METAR-TAF: